Ward Prairie, Texas
Current Conditions -  °F | °C
As of 7:12 PM on Saturday 22 Nov 2014 (Local Time) from KCRS Reporting Station
Moderate Rain Moderate Rain  
Wind Chill: 62°   Ceiling: 9000
Heat Index: 62°   Visibility: 4mi
Dew Point: 60°   Wind: 12mph
Humidity: 93%   Direction: 80°E
Pressure: 29.81"   Gusts: NA
Location:  31.8162°N, 96.1239°W
Report Text: KCRS 230112Z AUTO 08010KT 4SM RA BR SCT075 BKN090 OVC100 17/16 A2981 RMK AO2 P0005 T01670156
Loading
Personal Weather Stations






























Interactive Weather Map New forecast layout! Learn more

10-Day Weather Forecast

Advertisements
Track Severe Weather on mobile